sensor_id;sensor_type;location;lat;lon;timestamp;temperature;humidity
5899;DHT22;2975;50.956;6.962;2023-08-08T00:01:53;14.40;99.90
5899;DHT22;2975;50.956;6.962;2023-08-08T00:04:19;14.40;99.90
5899;DHT22;2975;50.956;6.962;2023-08-08T00:06:44;14.40;99.90
5899;DHT22;2975;50.956;6.962;2023-08-08T00:09:10;14.40;99.90
5899;DHT22;2975;50.956;6.962;2023-08-08T00:11:36;14.30;99.90
5899;DHT22;2975;50.956;6.962;2023-08-08T00:14:01;14.30;99.90
5899;DHT22;2975;50.956;6.962;2023-08-08T00:16:27;14.30;99.90
5899;DHT22;2975;50.956;6.962;2023-08-08T00:18:53;14.30;99.90
5899;DHT22;2975;50.956;6.962;2023-08-08T00:21:20;14.30;99.90
5899;DHT22;2975;50.956;6.962;2023-08-08T00:23:45;14.20;99.90
5899;DHT22;2975;50.956;6.962;2023-08-08T00:26:11;14.20;99.90
5899;DHT22;2975;50.956;6.962;2023-08-08T00:28:37;14.10;99.90
5899;DHT22;2975;50.956;6.962;2023-08-08T00:31:02;14.00;99.90
5899;DHT22;2975;50.956;6.962;2023-08-08T00:33:28;14.00;99.90
5899;DHT22;2975;50.956;6.962;2023-08-08T00:35:54;13.90;99.90
5899;DHT22;2975;50.956;6.962;2023-08-08T00:38:20;13.90;99.90
5899;DHT22;2975;50.956;6.962;2023-08-08T00:40:45;13.90;99.90
5899;DHT22;2975;50.956;6.962;2023-08-08T00:43:11;13.80;99.90
5899;DHT22;2975;50.956;6.962;2023-08-08T00:45:37;13.80;99.90
5899;DHT22;2975;50.956;6.962;2023-08-08T00:48:03;13.70;99.90
5899;DHT22;2975;50.956;6.962;2023-08-08T00:50:29;13.70;99.90
5899;DHT22;2975;50.956;6.962;2023-08-08T00:52:55;13.70;99.90
5899;DHT22;2975;50.956;6.962;2023-08-08T00:55:22;13.70;99.90
5899;DHT22;2975;50.956;6.962;2023-08-08T00:57:48;13.70;99.90
5899;DHT22;2975;50.956;6.962;2023-08-08T01:00:14;13.70;99.90
5899;DHT22;2975;50.956;6.962;2023-08-08T01:02:39;13.70;99.90
5899;DHT22;2975;50.956;6.962;2023-08-08T01:05:06;13.80;99.90
5899;DHT22;2975;50.956;6.962;2023-08-08T01:08:02;13.80;99.90
5899;DHT22;2975;50.956;6.962;2023-08-08T01:10:33;13.90;99.90
5899;DHT22;2975;50.956;6.962;2023-08-08T01:13:05;13.90;99.90
5899;DHT22;2975;50.956;6.962;2023-08-08T01:15:34;13.90;99.90
5899;DHT22;2975;50.956;6.962;2023-08-08T01:18:08;13.90;99.90
5899;DHT22;2975;50.956;6.962;2023-08-08T01:20:36;13.90;99.90
5899;DHT22;2975;50.956;6.962;2023-08-08T01:23:16;14.00;99.90
5899;DHT22;2975;50.956;6.962;2023-08-08T01:25:43;14.00;99.90
5899;DHT22;2975;50.956;6.962;2023-08-08T01:28:09;14.00;99.90
5899;DHT22;2975;50.956;6.962;2023-08-08T01:30:35;14.10;99.90
5899;DHT22;2975;50.956;6.962;2023-08-08T01:33:02;14.10;99.90
5899;DHT22;2975;50.956;6.962;2023-08-08T01:35:31;14.10;99.90
5899;DHT22;2975;50.956;6.962;2023-08-08T01:38:06;14.10;99.90
5899;DHT22;2975;50.956;6.962;2023-08-08T01:40:35;14.10;99.90
5899;DHT22;2975;50.956;6.962;2023-08-08T01:43:02;14.20;99.90
5899;DHT22;2975;50.956;6.962;2023-08-08T01:45:29;14.20;99.90
5899;DHT22;2975;50.956;6.962;2023-08-08T01:47:55;14.20;99.90
5899;DHT22;2975;50.956;6.962;2023-08-08T01:50:21;14.20;99.90
5899;DHT22;2975;50.956;6.962;2023-08-08T01:52:47;14.10;99.90
5899;DHT22;2975;50.956;6.962;2023-08-08T01:55:12;14.10;99.90
5899;DHT22;2975;50.956;6.962;2023-08-08T01:57:38;14.10;99.90
5899;DHT22;2975;50.956;6.962;2023-08-08T02:00:06;14.20;99.90
5899;DHT22;2975;50.956;6.962;2023-08-08T02:02:32;14.10;99.90
5899;DHT22;2975;50.956;6.962;2023-08-08T02:04:57;14.10;99.90
5899;DHT22;2975;50.956;6.962;2023-08-08T02:07:23;14.10;99.90
5899;DHT22;2975;50.956;6.962;2023-08-08T02:09:48;14.10;99.90
5899;DHT22;2975;50.956;6.962;2023-08-08T02:12:16;14.10;99.90
5899;DHT22;2975;50.956;6.962;2023-08-08T02:14:42;14.10;99.90
5899;DHT22;2975;50.956;6.962;2023-08-08T02:17:07;14.00;99.90
5899;DHT22;2975;50.956;6.962;2023-08-08T02:19:33;13.90;99.90
5899;DHT22;2975;50.956;6.962;2023-08-08T02:21:58;13.80;99.90
5899;DHT22;2975;50.956;6.962;2023-08-08T02:24:24;13.70;99.90
5899;DHT22;2975;50.956;6.962;2023-08-08T02:26:49;13.70;99.90
5899;DHT22;2975;50.956;6.962;2023-08-08T02:29:15;13.60;99.90
5899;DHT22;2975;50.956;6.962;2023-08-08T02:31:41;13.50;99.90
5899;DHT22;2975;50.956;6.962;2023-08-08T02:34:06;13.50;99.90
5899;DHT22;2975;50.956;6.962;2023-08-08T02:36:32;13.40;99.90
5899;DHT22;2975;50.956;6.962;2023-08-08T02:38:58;13.40;99.90
5899;DHT22;2975;50.956;6.962;2023-08-08T02:41:24;13.30;99.90
5899;DHT22;2975;50.956;6.962;2023-08-08T02:43:49;13.40;99.90
5899;DHT22;2975;50.956;6.962;2023-08-08T02:46:15;13.40;99.90
5899;DHT22;2975;50.956;6.962;2023-08-08T02:48:41;13.40;99.90
5899;DHT22;2975;50.956;6.962;2023-08-08T02:51:06;13.30;99.90
5899;DHT22;2975;50.956;6.962;2023-08-08T02:53:32;13.30;99.90
5899;DHT22;2975;50.956;6.962;2023-08-08T02:55:57;13.30;99.90
5899;DHT22;2975;50.956;6.962;2023-08-08T02:58:23;13.30;99.90
5899;DHT22;2975;50.956;6.962;2023-08-08T03:00:49;13.30;99.90
5899;DHT22;2975;50.956;6.962;2023-08-08T03:03:14;13.20;99.90
5899;DHT22;2975;50.956;6.962;2023-08-08T03:05:40;13.20;99.90
5899;DHT22;2975;50.956;6.962;2023-08-08T03:08:06;13.20;99.90
5899;DHT22;2975;50.956;6.962;2023-08-08T03:10:31;13.10;99.90
5899;DHT22;2975;50.956;6.962;2023-08-08T03:12:57;13.10;99.90
5899;DHT22;2975;50.956;6.962;2023-08-08T03:15:23;13.10;99.90
5899;DHT22;2975;50.956;6.962;2023-08-08T03:17:48;13.00;99.90
5899;DHT22;2975;50.956;6.962;2023-08-08T03:20:14;13.00;99.90
5899;DHT22;2975;50.956;6.962;2023-08-08T03:22:40;13.00;99.90
5899;DHT22;2975;50.956;6.962;2023-08-08T03:25:07;13.00;99.90
5899;DHT22;2975;50.956;6.962;2023-08-08T03:27:32;12.90;99.90
5899;DHT22;2975;50.956;6.962;2023-08-08T03:29:58;12.90;99.90
5899;DHT22;2975;50.956;6.962;2023-08-08T03:32:24;12.90;99.90
5899;DHT22;2975;50.956;6.962;2023-08-08T03:34:49;12.90;99.90
5899;DHT22;2975;50.956;6.962;2023-08-08T03:37:15;12.90;99.90
5899;DHT22;2975;50.956;6.962;2023-08-08T03:39:40;12.90;99.90
5899;DHT22;2975;50.956;6.962;2023-08-08T03:42:06;12.90;99.90
5899;DHT22;2975;50.956;6.962;2023-08-08T03:44:32;12.90;99.90
5899;DHT22;2975;50.956;6.962;2023-08-08T03:46:57;12.90;99.90
5899;DHT22;2975;50.956;6.962;2023-08-08T03:49:23;12.90;99.90
5899;DHT22;2975;50.956;6.962;2023-08-08T03:51:49;12.90;99.90
5899;DHT22;2975;50.956;6.962;2023-08-08T03:54:14;13.00;99.90
5899;DHT22;2975;50.956;6.962;2023-08-08T03:56:41;13.10;99.90
5899;DHT22;2975;50.956;6.962;2023-08-08T03:59:06;13.00;99.90
5899;DHT22;2975;50.956;6.962;2023-08-08T04:01:32;13.20;99.90
5899;DHT22;2975;50.956;6.962;2023-08-08T04:03:58;13.20;99.90
5899;DHT22;2975;50.956;6.962;2023-08-08T04:06:24;13.20;99.90
5899;DHT22;2975;50.956;6.962;2023-08-08T04:08:49;13.20;99.90
5899;DHT22;2975;50.956;6.962;2023-08-08T04:11:16;13.10;99.90
5899;DHT22;2975;50.956;6.962;2023-08-08T04:13:42;13.10;99.90
5899;DHT22;2975;50.956;6.962;2023-08-08T04:16:08;13.10;99.90
5899;DHT22;2975;50.956;6.962;2023-08-08T04:18:33;13.10;99.90
5899;DHT22;2975;50.956;6.962;2023-08-08T04:20:59;13.10;99.90
5899;DHT22;2975;50.956;6.962;2023-08-08T04:23:25;13.20;99.90
5899;DHT22;2975;50.956;6.962;2023-08-08T04:25:52;13.30;99.90
5899;DHT22;2975;50.956;6.962;2023-08-08T04:28:18;13.30;99.90
5899;DHT22;2975;50.956;6.962;2023-08-08T04:30:44;13.40;99.90
5899;DHT22;2975;50.956;6.962;2023-08-08T04:33:09;13.40;99.90
5899;DHT22;2975;50.956;6.962;2023-08-08T04:35:35;13.40;99.90
5899;DHT22;2975;50.956;6.962;2023-08-08T04:38:01;13.40;99.90
5899;DHT22;2975;50.956;6.962;2023-08-08T04:40:27;13.30;99.90
5899;DHT22;2975;50.956;6.962;2023-08-08T04:42:52;13.30;99.90
5899;DHT22;2975;50.956;6.962;2023-08-08T04:45:18;13.40;99.90
5899;DHT22;2975;50.956;6.962;2023-08-08T04:47:44;13.40;99.90
5899;DHT22;2975;50.956;6.962;2023-08-08T04:50:11;13.40;99.90
5899;DHT22;2975;50.956;6.962;2023-08-08T04:52:36;13.40;99.90
5899;DHT22;2975;50.956;6.962;2023-08-08T04:55:02;13.40;99.90
5899;DHT22;2975;50.956;6.962;2023-08-08T04:57:28;13.50;99.90
5899;DHT22;2975;50.956;6.962;2023-08-08T04:59:54;13.60;99.90
5899;DHT22;2975;50.956;6.962;2023-08-08T05:02:19;13.60;99.90
5899;DHT22;2975;50.956;6.962;2023-08-08T05:04:45;13.60;99.90
5899;DHT22;2975;50.956;6.962;2023-08-08T05:07:10;13.70;99.90
5899;DHT22;2975;50.956;6.962;2023-08-08T05:09:36;13.80;99.90
5899;DHT22;2975;50.956;6.962;2023-08-08T05:12:01;13.80;99.90
5899;DHT22;2975;50.956;6.962;2023-08-08T05:14:27;13.90;99.90
5899;DHT22;2975;50.956;6.962;2023-08-08T05:16:53;14.00;99.90
5899;DHT22;2975;50.956;6.962;2023-08-08T05:19:18;14.10;99.90
5899;DHT22;2975;50.956;6.962;2023-08-08T05:21:44;14.20;99.90
5899;DHT22;2975;50.956;6.962;2023-08-08T05:24:09;14.30;99.90
5899;DHT22;2975;50.956;6.962;2023-08-08T05:26:35;14.40;99.90
5899;DHT22;2975;50.956;6.962;2023-08-08T05:29:01;14.60;99.90
5899;DHT22;2975;50.956;6.962;2023-08-08T05:31:26;14.80;99.90
5899;DHT22;2975;50.956;6.962;2023-08-08T05:33:52;15.00;99.90
5899;DHT22;2975;50.956;6.962;2023-08-08T05:36:18;15.30;99.90
5899;DHT22;2975;50.956;6.962;2023-08-08T05:38:44;15.40;99.90
5899;DHT22;2975;50.956;6.962;2023-08-08T05:41:09;15.50;99.90
5899;DHT22;2975;50.956;6.962;2023-08-08T05:43:35;15.70;99.90
5899;DHT22;2975;50.956;6.962;2023-08-08T05:46:02;15.80;99.90
5899;DHT22;2975;50.956;6.962;2023-08-08T05:48:27;15.70;99.90
5899;DHT22;2975;50.956;6.962;2023-08-08T05:50:53;15.70;99.90
5899;DHT22;2975;50.956;6.962;2023-08-08T05:53:18;15.80;99.90
5899;DHT22;2975;50.956;6.962;2023-08-08T05:55:44;15.70;99.90
5899;DHT22;2975;50.956;6.962;2023-08-08T05:58:10;15.80;99.90
5899;DHT22;2975;50.956;6.962;2023-08-08T06:00:36;16.50;99.90
5899;DHT22;2975;50.956;6.962;2023-08-08T06:03:02;18.40;99.90
5899;DHT22;2975;50.956;6.962;2023-08-08T06:05:27;18.50;99.90
5899;DHT22;2975;50.956;6.962;2023-08-08T06:07:54;18.60;99.90
5899;DHT22;2975;50.956;6.962;2023-08-08T06:10:21;20.20;99.90
5899;DHT22;2975;50.956;6.962;2023-08-08T06:12:47;21.70;99.90
5899;DHT22;2975;50.956;6.962;2023-08-08T06:15:13;22.30;98.20
5899;DHT22;2975;50.956;6.962;2023-08-08T06:17:38;23.60;96.10
5899;DHT22;2975;50.956;6.962;2023-08-08T06:20:05;24.20;93.80
5899;DHT22;2975;50.956;6.962;2023-08-08T06:22:32;25.10;92.80
5899;DHT22;2975;50.956;6.962;2023-08-08T06:24:57;25.90;90.70
5899;DHT22;2975;50.956;6.962;2023-08-08T06:27:23;25.80;90.30
5899;DHT22;2975;50.956;6.962;2023-08-08T06:29:49;25.70;89.00
5899;DHT22;2975;50.956;6.962;2023-08-08T06:32:14;24.70;89.40
5899;DHT22;2975;50.956;6.962;2023-08-08T06:34:40;23.00;91.90
5899;DHT22;2975;50.956;6.962;2023-08-08T06:37:05;21.70;94.70
5899;DHT22;2975;50.956;6.962;2023-08-08T06:39:31;20.70;97.40
5899;DHT22;2975;50.956;6.962;2023-08-08T06:41:57;20.10;98.90
5899;DHT22;2975;50.956;6.962;2023-08-08T06:44:23;19.50;99.90
5899;DHT22;2975;50.956;6.962;2023-08-08T06:46:48;19.10;99.90
5899;DHT22;2975;50.956;6.962;2023-08-08T06:49:14;18.90;99.90
5899;DHT22;2975;50.956;6.962;2023-08-08T06:51:39;18.80;99.90
5899;DHT22;2975;50.956;6.962;2023-08-08T06:54:05;18.70;99.90
5899;DHT22;2975;50.956;6.962;2023-08-08T06:56:31;18.70;99.90
5899;DHT22;2975;50.956;6.962;2023-08-08T06:58:57;18.70;99.90
5899;DHT22;2975;50.956;6.962;2023-08-08T07:01:22;18.50;99.90
5899;DHT22;2975;50.956;6.962;2023-08-08T07:03:48;18.30;99.90
5899;DHT22;2975;50.956;6.962;2023-08-08T07:06:17;18.10;99.90
5899;DHT22;2975;50.956;6.962;2023-08-08T07:08:42;17.70;99.90
5899;DHT22;2975;50.956;6.962;2023-08-08T07:11:08;17.60;99.90
5899;DHT22;2975;50.956;6.962;2023-08-08T07:13:34;17.70;99.90
5899;DHT22;2975;50.956;6.962;2023-08-08T07:15:59;17.70;99.90
5899;DHT22;2975;50.956;6.962;2023-08-08T07:18:25;17.90;99.90
5899;DHT22;2975;50.956;6.962;2023-08-08T07:20:51;17.80;99.90
5899;DHT22;2975;50.956;6.962;2023-08-08T07:23:16;17.70;99.90
5899;DHT22;2975;50.956;6.962;2023-08-08T07:25:42;17.60;99.90
5899;DHT22;2975;50.956;6.962;2023-08-08T07:28:08;17.60;99.90
5899;DHT22;2975;50.956;6.962;2023-08-08T07:30:34;17.70;99.90
5899;DHT22;2975;50.956;6.962;2023-08-08T07:33:00;17.70;99.90
5899;DHT22;2975;50.956;6.962;2023-08-08T07:35:26;17.70;99.90
5899;DHT22;2975;50.956;6.962;2023-08-08T07:37:51;17.80;99.90
5899;DHT22;2975;50.956;6.962;2023-08-08T07:40:18;17.90;99.90
5899;DHT22;2975;50.956;6.962;2023-08-08T07:42:45;18.10;99.90
5899;DHT22;2975;50.956;6.962;2023-08-08T07:45:11;18.20;99.90
5899;DHT22;2975;50.956;6.962;2023-08-08T07:47:37;18.40;99.90
5899;DHT22;2975;50.956;6.962;2023-08-08T07:50:02;18.50;99.90
5899;DHT22;2975;50.956;6.962;2023-08-08T07:52:28;18.50;99.90
5899;DHT22;2975;50.956;6.962;2023-08-08T07:54:54;18.70;99.90
5899;DHT22;2975;50.956;6.962;2023-08-08T07:57:19;19.10;99.90
5899;DHT22;2975;50.956;6.962;2023-08-08T07:59:45;19.30;99.90
5899;DHT22;2975;50.956;6.962;2023-08-08T08:02:10;19.20;99.90
5899;DHT22;2975;50.956;6.962;2023-08-08T08:04:36;19.10;99.90
5899;DHT22;2975;50.956;6.962;2023-08-08T08:07:02;19.20;99.90
5899;DHT22;2975;50.956;6.962;2023-08-08T08:09:28;19.00;99.90
5899;DHT22;2975;50.956;6.962;2023-08-08T08:11:54;19.10;99.90
5899;DHT22;2975;50.956;6.962;2023-08-08T08:14:21;19.20;99.90
5899;DHT22;2975;50.956;6.962;2023-08-08T08:16:47;19.30;99.90
5899;DHT22;2975;50.956;6.962;2023-08-08T08:19:13;19.30;99.90
5899;DHT22;2975;50.956;6.962;2023-08-08T08:21:39;19.30;99.90
5899;DHT22;2975;50.956;6.962;2023-08-08T08:24:05;19.40;99.90
5899;DHT22;2975;50.956;6.962;2023-08-08T08:26:31;19.40;99.90
5899;DHT22;2975;50.956;6.962;2023-08-08T08:28:57;19.60;99.90
5899;DHT22;2975;50.956;6.962;2023-08-08T08:31:23;19.50;99.90
5899;DHT22;2975;50.956;6.962;2023-08-08T08:33:49;19.20;99.90
5899;DHT22;2975;50.956;6.962;2023-08-08T08:36:15;18.90;99.90
5899;DHT22;2975;50.956;6.962;2023-08-08T08:38:40;18.60;99.90
5899;DHT22;2975;50.956;6.962;2023-08-08T08:41:06;18.40;99.90
5899;DHT22;2975;50.956;6.962;2023-08-08T08:43:34;18.10;99.90
5899;DHT22;2975;50.956;6.962;2023-08-08T08:46:01;17.90;99.90
5899;DHT22;2975;50.956;6.962;2023-08-08T08:48:29;17.90;99.90
5899;DHT22;2975;50.956;6.962;2023-08-08T08:50:56;18.00;99.90
5899;DHT22;2975;50.956;6.962;2023-08-08T08:53:24;18.10;99.90
5899;DHT22;2975;50.956;6.962;2023-08-08T08:55:51;18.00;99.90
5899;DHT22;2975;50.956;6.962;2023-08-08T08:58:18;17.90;99.90
5899;DHT22;2975;50.956;6.962;2023-08-08T09:00:44;17.80;99.90
5899;DHT22;2975;50.956;6.962;2023-08-08T09:03:11;17.90;99.90
5899;DHT22;2975;50.956;6.962;2023-08-08T09:05:38;18.00;99.90
5899;DHT22;2975;50.956;6.962;2023-08-08T09:08:05;18.20;99.90
5899;DHT22;2975;50.956;6.962;2023-08-08T09:10:32;18.30;99.90
5899;DHT22;2975;50.956;6.962;2023-08-08T09:12:57;18.40;99.90
5899;DHT22;2975;50.956;6.962;2023-08-08T09:15:23;18.30;99.90
5899;DHT22;2975;50.956;6.962;2023-08-08T09:17:49;18.40;99.90
5899;DHT22;2975;50.956;6.962;2023-08-08T09:20:14;18.40;99.90
5899;DHT22;2975;50.956;6.962;2023-08-08T09:22:40;18.50;99.90
5899;DHT22;2975;50.956;6.962;2023-08-08T09:25:06;18.50;99.90
5899;DHT22;2975;50.956;6.962;2023-08-08T09:27:33;18.50;99.90
5899;DHT22;2975;50.956;6.962;2023-08-08T09:29:59;18.60;99.90
5899;DHT22;2975;50.956;6.962;2023-08-08T09:32:31;18.70;99.90
5899;DHT22;2975;50.956;6.962;2023-08-08T09:34:58;18.70;99.90
5899;DHT22;2975;50.956;6.962;2023-08-08T09:37:24;18.70;99.90
5899;DHT22;2975;50.956;6.962;2023-08-08T09:39:56;18.90;99.90
5899;DHT22;2975;50.956;6.962;2023-08-08T09:42:23;19.10;99.90
5899;DHT22;2975;50.956;6.962;2023-08-08T09:44:48;19.20;99.90
5899;DHT22;2975;50.956;6.962;2023-08-08T09:47:14;19.20;99.90
5899;DHT22;2975;50.956;6.962;2023-08-08T09:49:40;19.30;99.90
5899;DHT22;2975;50.956;6.962;2023-08-08T09:52:07;19.20;99.90
5899;DHT22;2975;50.956;6.962;2023-08-08T09:54:33;19.20;99.90
5899;DHT22;2975;50.956;6.962;2023-08-08T09:56:59;19.40;99.90
5899;DHT22;2975;50.956;6.962;2023-08-08T09:59:25;19.50;99.10
5899;DHT22;2975;50.956;6.962;2023-08-08T10:01:52;19.60;98.60
5899;DHT22;2975;50.956;6.962;2023-08-08T10:04:17;19.60;98.80
5899;DHT22;2975;50.956;6.962;2023-08-08T10:06:43;19.70;98.20
5899;DHT22;2975;50.956;6.962;2023-08-08T10:09:09;19.90;98.10
5899;DHT22;2975;50.956;6.962;2023-08-08T10:11:35;19.60;97.90
5899;DHT22;2975;50.956;6.962;2023-08-08T10:14:02;19.30;98.60
5899;DHT22;2975;50.956;6.962;2023-08-08T10:16:32;19.20;98.90
5899;DHT22;2975;50.956;6.962;2023-08-08T10:19:00;19.20;99.40
5899;DHT22;2975;50.956;6.962;2023-08-08T10:21:26;19.40;99.30
5899;DHT22;2975;50.956;6.962;2023-08-08T10:24:08;19.70;98.10
5899;DHT22;2975;50.956;6.962;2023-08-08T10:26:50;20.00;97.80
5899;DHT22;2975;50.956;6.962;2023-08-08T10:29:18;20.10;97.10
5899;DHT22;2975;50.956;6.962;2023-08-08T10:31:57;20.50;95.70
5899;DHT22;2975;50.956;6.962;2023-08-08T10:34:37;20.70;96.00
5899;DHT22;2975;50.956;6.962;2023-08-08T10:37:14;20.80;95.60
5899;DHT22;2975;50.956;6.962;2023-08-08T10:40:00;20.80;95.30
5899;DHT22;2975;50.956;6.962;2023-08-08T10:42:27;20.80;94.10
5899;DHT22;2975;50.956;6.962;2023-08-08T10:44:56;20.80;93.60
5899;DHT22;2975;50.956;6.962;2023-08-08T10:47:30;20.70;94.40
5899;DHT22;2975;50.956;6.962;2023-08-08T10:52:26;20.60;94.80
5899;DHT22;2975;50.956;6.962;2023-08-08T10:54:52;20.30;93.70
5899;DHT22;2975;50.956;6.962;2023-08-08T10:57:23;20.20;94.90
5899;DHT22;2975;50.956;6.962;2023-08-08T10:59:49;20.10;95.50
5899;DHT22;2975;50.956;6.962;2023-08-08T11:02:15;19.90;95.00
5899;DHT22;2975;50.956;6.962;2023-08-08T11:04:41;19.60;95.10
5899;DHT22;2975;50.956;6.962;2023-08-08T11:07:07;19.50;95.70
5899;DHT22;2975;50.956;6.962;2023-08-08T11:09:34;19.50;95.70
5899;DHT22;2975;50.956;6.962;2023-08-08T11:12:00;19.50;96.20
5899;DHT22;2975;50.956;6.962;2023-08-08T11:14:25;19.70;95.90
5899;DHT22;2975;50.956;6.962;2023-08-08T11:16:52;19.80;95.70
5899;DHT22;2975;50.956;6.962;2023-08-08T11:19:18;20.10;95.40
5899;DHT22;2975;50.956;6.962;2023-08-08T11:21:47;20.50;95.30
5899;DHT22;2975;50.956;6.962;2023-08-08T11:24:13;20.70;94.80
5899;DHT22;2975;50.956;6.962;2023-08-08T11:26:41;20.70;95.20
5899;DHT22;2975;50.956;6.962;2023-08-08T11:29:07;20.60;94.80
5899;DHT22;2975;50.956;6.962;2023-08-08T11:31:36;20.50;94.90
5899;DHT22;2975;50.956;6.962;2023-08-08T11:34:03;20.20;94.70
5899;DHT22;2975;50.956;6.962;2023-08-08T11:36:31;20.20;94.80
5899;DHT22;2975;50.956;6.962;2023-08-08T11:38:57;20.10;94.80
5899;DHT22;2975;50.956;6.962;2023-08-08T11:41:24;20.30;94.70
5899;DHT22;2975;50.956;6.962;2023-08-08T11:43:51;20.70;94.60
5899;DHT22;2975;50.956;6.962;2023-08-08T11:46:17;21.10;94.20
5899;DHT22;2975;50.956;6.962;2023-08-08T11:48:46;21.10;93.10
5899;DHT22;2975;50.956;6.962;2023-08-08T11:51:14;21.00;93.00
5899;DHT22;2975;50.956;6.962;2023-08-08T11:53:52;20.90;93.10
5899;DHT22;2975;50.956;6.962;2023-08-08T11:56:19;20.80;93.00
5899;DHT22;2975;50.956;6.962;2023-08-08T11:58:46;20.70;93.80
5899;DHT22;2975;50.956;6.962;2023-08-08T12:01:11;20.70;93.80
5899;DHT22;2975;50.956;6.962;2023-08-08T12:03:39;20.60;93.20
5899;DHT22;2975;50.956;6.962;2023-08-08T12:06:15;20.30;93.10
5899;DHT22;2975;50.956;6.962;2023-08-08T12:08:42;20.00;94.50
5899;DHT22;2975;50.956;6.962;2023-08-08T12:11:09;20.00;94.70
5899;DHT22;2975;50.956;6.962;2023-08-08T12:13:40;20.10;94.10
5899;DHT22;2975;50.956;6.962;2023-08-08T12:16:10;20.20;93.20
5899;DHT22;2975;50.956;6.962;2023-08-08T12:18:38;20.20;93.50
5899;DHT22;2975;50.956;6.962;2023-08-08T12:21:05;20.30;92.90
5899;DHT22;2975;50.956;6.962;2023-08-08T12:23:31;20.50;92.90
5899;DHT22;2975;50.956;6.962;2023-08-08T12:25:58;20.50;93.40
5899;DHT22;2975;50.956;6.962;2023-08-08T12:28:24;20.60;92.40
5899;DHT22;2975;50.956;6.962;2023-08-08T12:30:50;20.70;92.80
5899;DHT22;2975;50.956;6.962;2023-08-08T12:33:15;20.90;91.90
5899;DHT22;2975;50.956;6.962;2023-08-08T12:35:41;20.80;92.50
5899;DHT22;2975;50.956;6.962;2023-08-08T12:38:07;20.70;92.50
5899;DHT22;2975;50.956;6.962;2023-08-08T12:40:32;20.70;92.30
5899;DHT22;2975;50.956;6.962;2023-08-08T12:42:59;20.60;92.20
5899;DHT22;2975;50.956;6.962;2023-08-08T12:45:25;20.50;92.80
5899;DHT22;2975;50.956;6.962;2023-08-08T12:47:51;20.50;93.60
5899;DHT22;2975;50.956;6.962;2023-08-08T12:50:16;20.50;93.00
5899;DHT22;2975;50.956;6.962;2023-08-08T12:52:42;20.30;93.30
5899;DHT22;2975;50.956;6.962;2023-08-08T12:55:08;20.20;94.50
5899;DHT22;2975;50.956;6.962;2023-08-08T12:57:36;19.80;93.40
5899;DHT22;2975;50.956;6.962;2023-08-08T13:00:02;19.60;96.10
5899;DHT22;2975;50.956;6.962;2023-08-08T13:02:28;19.30;99.90
5899;DHT22;2975;50.956;6.962;2023-08-08T13:04:53;18.90;99.90
5899;DHT22;2975;50.956;6.962;2023-08-08T13:07:19;18.40;99.90
5899;DHT22;2975;50.956;6.962;2023-08-08T13:09:45;18.20;99.90
5899;DHT22;2975;50.956;6.962;2023-08-08T13:12:10;18.00;99.90
5899;DHT22;2975;50.956;6.962;2023-08-08T13:14:36;18.00;99.90
5899;DHT22;2975;50.956;6.962;2023-08-08T13:17:01;17.90;99.90
5899;DHT22;2975;50.956;6.962;2023-08-08T13:19:28;17.90;99.90
5899;DHT22;2975;50.956;6.962;2023-08-08T13:21:54;17.90;99.90
5899;DHT22;2975;50.956;6.962;2023-08-08T13:24:20;18.00;99.90
5899;DHT22;2975;50.956;6.962;2023-08-08T13:26:49;18.10;99.90
5899;DHT22;2975;50.956;6.962;2023-08-08T13:29:15;18.50;99.90
5899;DHT22;2975;50.956;6.962;2023-08-08T13:31:41;19.00;99.90
5899;DHT22;2975;50.956;6.962;2023-08-08T13:34:07;19.50;99.90
5899;DHT22;2975;50.956;6.962;2023-08-08T13:36:32;19.60;99.90
5899;DHT22;2975;50.956;6.962;2023-08-08T13:38:58;19.50;99.90
5899;DHT22;2975;50.956;6.962;2023-08-08T13:41:24;19.50;99.90
5899;DHT22;2975;50.956;6.962;2023-08-08T13:43:51;19.60;99.10
5899;DHT22;2975;50.956;6.962;2023-08-08T13:46:17;19.90;98.40
5899;DHT22;2975;50.956;6.962;2023-08-08T13:48:42;19.90;96.60
5899;DHT22;2975;50.956;6.962;2023-08-08T13:51:08;20.20;94.90
5899;DHT22;2975;50.956;6.962;2023-08-08T13:53:34;20.20;94.60
5899;DHT22;2975;50.956;6.962;2023-08-08T13:55:59;20.10;94.10
5899;DHT22;2975;50.956;6.962;2023-08-08T13:58:25;19.90;94.70
5899;DHT22;2975;50.956;6.962;2023-08-08T14:00:51;19.80;94.90
5899;DHT22;2975;50.956;6.962;2023-08-08T14:03:17;19.70;94.90
5899;DHT22;2975;50.956;6.962;2023-08-08T14:05:44;19.60;95.50
5899;DHT22;2975;50.956;6.962;2023-08-08T14:08:09;19.70;96.60
5899;DHT22;2975;50.956;6.962;2023-08-08T14:10:36;19.80;98.60
5899;DHT22;2975;50.956;6.962;2023-08-08T14:13:02;19.90;97.20
5899;DHT22;2975;50.956;6.962;2023-08-08T14:15:28;19.90;96.80
5899;DHT22;2975;50.956;6.962;2023-08-08T14:17:54;19.80;96.50
5899;DHT22;2975;50.956;6.962;2023-08-08T14:20:20;19.70;96.60
5899;DHT22;2975;50.956;6.962;2023-08-08T14:22:46;19.90;97.60
5899;DHT22;2975;50.956;6.962;2023-08-08T14:25:13;20.20;97.30
5899;DHT22;2975;50.956;6.962;2023-08-08T14:27:38;20.40;96.30
5899;DHT22;2975;50.956;6.962;2023-08-08T14:30:04;20.60;95.80
5899;DHT22;2975;50.956;6.962;2023-08-08T14:32:30;20.70;96.90
5899;DHT22;2975;50.956;6.962;2023-08-08T14:34:56;20.60;94.90
5899;DHT22;2975;50.956;6.962;2023-08-08T14:37:21;20.60;97.10
5899;DHT22;2975;50.956;6.962;2023-08-08T14:39:47;20.70;95.90
5899;DHT22;2975;50.956;6.962;2023-08-08T14:42:13;20.80;97.90
5899;DHT22;2975;50.956;6.962;2023-08-08T14:44:39;20.80;95.40
5899;DHT22;2975;50.956;6.962;2023-08-08T14:47:05;20.70;94.70
5899;DHT22;2975;50.956;6.962;2023-08-08T14:49:31;20.60;95.10
5899;DHT22;2975;50.956;6.962;2023-08-08T14:51:57;20.80;96.50
5899;DHT22;2975;50.956;6.962;2023-08-08T14:54:23;20.90;94.20
5899;DHT22;2975;50.956;6.962;2023-08-08T14:56:48;20.80;94.10
5899;DHT22;2975;50.956;6.962;2023-08-08T14:59:14;20.80;94.10
5899;DHT22;2975;50.956;6.962;2023-08-08T15:01:40;20.70;93.30
5899;DHT22;2975;50.956;6.962;2023-08-08T15:04:05;20.60;94.40
5899;DHT22;2975;50.956;6.962;2023-08-08T15:06:31;20.60;94.70
5899;DHT22;2975;50.956;6.962;2023-08-08T15:08:57;20.90;96.90
5899;DHT22;2975;50.956;6.962;2023-08-08T15:11:23;20.90;94.20
5899;DHT22;2975;50.956;6.962;2023-08-08T15:13:49;20.80;94.90
5899;DHT22;2975;50.956;6.962;2023-08-08T15:16:14;20.60;94.30
5899;DHT22;2975;50.956;6.962;2023-08-08T15:18:40;20.70;94.90
5899;DHT22;2975;50.956;6.962;2023-08-08T15:21:06;20.70;94.50
5899;DHT22;2975;50.956;6.962;2023-08-08T15:23:32;20.80;97.20
5899;DHT22;2975;50.956;6.962;2023-08-08T15:26:01;21.00;96.00
5899;DHT22;2975;50.956;6.962;2023-08-08T15:28:26;20.90;95.20
5899;DHT22;2975;50.956;6.962;2023-08-08T15:30:52;20.80;94.00
5899;DHT22;2975;50.956;6.962;2023-08-08T15:33:18;20.70;94.60
5899;DHT22;2975;50.956;6.962;2023-08-08T15:35:43;20.60;97.90
5899;DHT22;2975;50.956;6.962;2023-08-08T15:38:10;20.60;98.90
5899;DHT22;2975;50.956;6.962;2023-08-08T15:40:36;20.70;94.80
5899;DHT22;2975;50.956;6.962;2023-08-08T15:43:02;20.90;95.50
5899;DHT22;2975;50.956;6.962;2023-08-08T15:45:27;20.90;93.70
5899;DHT22;2975;50.956;6.962;2023-08-08T15:47:53;20.90;94.40
5899;DHT22;2975;50.956;6.962;2023-08-08T15:50:19;20.80;94.00
5899;DHT22;2975;50.956;6.962;2023-08-08T15:52:44;20.70;94.10
5899;DHT22;2975;50.956;6.962;2023-08-08T15:55:10;20.70;96.90
5899;DHT22;2975;50.956;6.962;2023-08-08T15:57:36;20.90;96.90
5899;DHT22;2975;50.956;6.962;2023-08-08T16:00:03;21.10;96.10